Kystovka, Russia
Current Conditions -  °F | °C
As of 7:00 AM on Monday 26 Jan 2015 (Local Time) from UNOO Reporting Station
Clear Clear  
Wind Chill: -26°   Ceiling: Unl
Heat Index: -11°   Visibility: 6mi
Dew Point: -17°   Wind: 7mph
Humidity: 77%   Direction: 240°WSW
Pressure: 30.8"   Gusts: NA
Location:  56.6°N, 76.9°E
Report Text: UNOO 260000Z 24003MPS CAVOK M24/M27 Q1043 25820545 NOSIG RMKQFE774
Loading
Personal Weather Stations






























Interactive Weather Map New forecast layout! Learn more

10-Day Weather Forecast

Advertisements
Track Severe Weather on mobile